Terminal Aerodrome Forecast
Issued by NWS

Home | Current Version | Previous Version | Text Only | Print | Product List | Glossary On
Versions: 1 2 3 4 5 6 7 8 9 10 11 12 13 14 15 16 17 18
000
FTUS45 KSLC 291120
TAFOGD
TAF
KOGD 291120Z 2912/3012 04015G28KT P6SM SCT080 BKN100
     FM291600 04012KT P6SM SCT120
     FM292000 32010KT P6SM SCT120
     FM300300 15005KT P6SM FEW120=

USA.gov is the U.S. government's official web portal to all federal, state and local government web resources and services.